Página principal
METAR-TAF:

METAR-TAF

Aeroportos :

Aeroporto Internacional Rei Abdulaziz

Jidá, Arábia Saudita

latitude: 21-42N, longitude: 039-11E, altura: 15 m

Observação actual do tempo

O boletim foi feito há 49 minutos, às 09:00 UTC
Vento 6 kt de oeste
Temperatura 36°C
Humidade 39%
Pressão 1003 hPa
Visibilidade 10 km ou mais
sem nuvens abaixo de 1500 metros e sem cumulonimbus

METAR: OEJN 270900Z 27006KT CAVOK 36/20 Q1003 NOSIG

Hora: 12:49 (09:49 UTC)

Previsão

O boletim foi feito há 4 horas e 49 minutos, às 05:00 UTC
Previsão válida de 27 às 06 UTC a 28 às 12 UTC
Vento 14 kt de oes-noroeste
Visibilidade 10 km ou mais
Nuvens dispersasa uma altura de 4000 ft

TAF: OEJN 270500Z 2706/2812 30014KT 9999 SCT040

Observações e previsões do tempo de mais de 4000 aeroportos (mensagens METAR e TAF).

As estações disponíveis são os pontos amarelos e vermelhos sobre o mapa.

Mova o rato sobre o mapa para ver o nome da estação.

Depois clique no ponto para visualizar as observações e previsões meteorológicas.

Para alterar o mapa : clique nos botões verdes com uma cruz preta para aumentar o zoom; no botão verde com uma pitada de zoom; ou nas setas verdes para mapas adjacentes.


METAR-TAF: